sensor_id;sensor_type;location;lat;lon;timestamp;P1;durP1;ratioP1;P2;durP2;ratioP2
15297;SDS011;7750;48.796;9.026;2022-09-21T00:00:35;5.67;;;3.70;;
15297;SDS011;7750;48.796;9.026;2022-09-21T00:05:39;6.10;;;3.90;;
15297;SDS011;7750;48.796;9.026;2022-09-21T00:10:40;5.33;;;3.83;;
15297;SDS011;7750;48.796;9.026;2022-09-21T00:15:40;7.63;;;4.90;;
15297;SDS011;7750;48.796;9.026;2022-09-21T00:20:41;7.83;;;4.30;;
15297;SDS011;7750;48.796;9.026;2022-09-21T00:25:42;5.30;;;3.80;;
15297;SDS011;7750;48.796;9.026;2022-09-21T00:30:43;5.20;;;4.13;;
15297;SDS011;7750;48.796;9.026;2022-09-21T00:35:44;8.70;;;4.60;;
15297;SDS011;7750;48.796;9.026;2022-09-21T00:40:45;6.23;;;4.27;;
15297;SDS011;7750;48.796;9.026;2022-09-21T00:45:46;5.60;;;3.77;;
15297;SDS011;7750;48.796;9.026;2022-09-21T00:50:49;9.47;;;3.80;;
15297;SDS011;7750;48.796;9.026;2022-09-21T00:55:54;4.70;;;3.70;;
15297;SDS011;7750;48.796;9.026;2022-09-21T01:00:57;4.80;;;3.80;;
15297;SDS011;7750;48.796;9.026;2022-09-21T01:05:59;5.53;;;4.10;;
15297;SDS011;7750;48.796;9.026;2022-09-21T01:16:44;5.43;;;4.40;;
15297;SDS011;7750;48.796;9.026;2022-09-21T01:32:50;4.20;;;3.40;;
15297;SDS011;7750;48.796;9.026;2022-09-21T01:37:58;4.43;;;3.60;;
15297;SDS011;7750;48.796;9.026;2022-09-21T01:43:03;6.40;;;3.90;;
15297;SDS011;7750;48.796;9.026;2022-09-21T01:48:05;4.63;;;3.60;;
15297;SDS011;7750;48.796;9.026;2022-09-21T01:53:09;7.13;;;3.97;;
15297;SDS011;7750;48.796;9.026;2022-09-21T02:03:27;8.67;;;4.30;;
15297;SDS011;7750;48.796;9.026;2022-09-21T02:08:37;9.33;;;3.73;;
15297;SDS011;7750;48.796;9.026;2022-09-21T02:13:39;4.70;;;3.87;;
15297;SDS011;7750;48.796;9.026;2022-09-21T02:24:17;8.60;;;4.27;;
15297;SDS011;7750;48.796;9.026;2022-09-21T02:34:48;5.07;;;3.93;;
15297;SDS011;7750;48.796;9.026;2022-09-21T02:40:10;5.23;;;3.97;;
15297;SDS011;7750;48.796;9.026;2022-09-21T02:45:30;5.13;;;3.60;;
15297;SDS011;7750;48.796;9.026;2022-09-21T02:50:49;7.13;;;3.97;;
15297;SDS011;7750;48.796;9.026;2022-09-21T02:55:53;7.00;;;3.80;;
15297;SDS011;7750;48.796;9.026;2022-09-21T03:00:56;4.53;;;3.43;;
15297;SDS011;7750;48.796;9.026;2022-09-21T03:05:58;7.70;;;4.33;;
15297;SDS011;7750;48.796;9.026;2022-09-21T03:10:59;6.63;;;4.00;;
15297;SDS011;7750;48.796;9.026;2022-09-21T03:16:00;3.93;;;3.47;;
15297;SDS011;7750;48.796;9.026;2022-09-21T03:21:03;7.53;;;4.27;;
15297;SDS011;7750;48.796;9.026;2022-09-21T03:26:04;4.97;;;3.67;;
15297;SDS011;7750;48.796;9.026;2022-09-21T03:31:05;8.13;;;3.93;;
15297;SDS011;7750;48.796;9.026;2022-09-21T03:36:06;7.00;;;4.37;;
15297;SDS011;7750;48.796;9.026;2022-09-21T03:41:07;5.57;;;3.60;;
15297;SDS011;7750;48.796;9.026;2022-09-21T03:46:07;4.77;;;3.50;;
15297;SDS011;7750;48.796;9.026;2022-09-21T03:51:08;4.27;;;3.53;;
15297;SDS011;7750;48.796;9.026;2022-09-21T03:56:09;6.37;;;4.07;;
15297;SDS011;7750;48.796;9.026;2022-09-21T04:01:09;4.57;;;3.60;;
15297;SDS011;7750;48.796;9.026;2022-09-21T04:06:10;5.90;;;3.70;;
15297;SDS011;7750;48.796;9.026;2022-09-21T04:11:12;4.37;;;3.50;;
15297;SDS011;7750;48.796;9.026;2022-09-21T04:16:14;8.70;;;4.10;;
15297;SDS011;7750;48.796;9.026;2022-09-21T04:21:17;5.30;;;4.03;;
15297;SDS011;7750;48.796;9.026;2022-09-21T04:26:22;6.70;;;5.10;;
15297;SDS011;7750;48.796;9.026;2022-09-21T04:31:25;6.07;;;4.30;;
15297;SDS011;7750;48.796;9.026;2022-09-21T04:36:27;10.37;;;4.77;;
15297;SDS011;7750;48.796;9.026;2022-09-21T04:41:28;18.83;;;6.37;;
15297;SDS011;7750;48.796;9.026;2022-09-21T04:46:29;6.23;;;4.40;;
15297;SDS011;7750;48.796;9.026;2022-09-21T04:51:29;6.70;;;3.80;;
15297;SDS011;7750;48.796;9.026;2022-09-21T04:56:30;5.17;;;3.60;;
15297;SDS011;7750;48.796;9.026;2022-09-21T05:01:31;6.00;;;3.77;;
15297;SDS011;7750;48.796;9.026;2022-09-21T05:06:32;6.23;;;3.83;;
15297;SDS011;7750;48.796;9.026;2022-09-21T05:11:33;11.33;;;3.60;;
15297;SDS011;7750;48.796;9.026;2022-09-21T05:16:33;4.70;;;3.50;;
15297;SDS011;7750;48.796;9.026;2022-09-21T05:21:35;8.07;;;4.20;;
15297;SDS011;7750;48.796;9.026;2022-09-21T05:26:36;12.53;;;3.60;;
15297;SDS011;7750;48.796;9.026;2022-09-21T05:37:11;6.57;;;3.60;;
15297;SDS011;7750;48.796;9.026;2022-09-21T05:42:36;6.03;;;4.20;;
15297;SDS011;7750;48.796;9.026;2022-09-21T05:47:44;10.50;;;5.17;;
15297;SDS011;7750;48.796;9.026;2022-09-21T05:58:05;7.90;;;6.00;;
15297;SDS011;7750;48.796;9.026;2022-09-21T06:03:27;7.90;;;6.17;;
15297;SDS011;7750;48.796;9.026;2022-09-21T06:08:29;10.23;;;7.80;;
15297;SDS011;7750;48.796;9.026;2022-09-21T06:13:30;8.00;;;6.93;;
15297;SDS011;7750;48.796;9.026;2022-09-21T06:18:31;10.47;;;6.40;;
15297;SDS011;7750;48.796;9.026;2022-09-21T06:23:39;10.03;;;7.03;;
15297;SDS011;7750;48.796;9.026;2022-09-21T06:28:40;9.27;;;6.23;;
15297;SDS011;7750;48.796;9.026;2022-09-21T06:33:40;11.33;;;6.13;;
15297;SDS011;7750;48.796;9.026;2022-09-21T06:38:41;11.40;;;6.70;;
15297;SDS011;7750;48.796;9.026;2022-09-21T06:43:42;11.30;;;7.70;;
15297;SDS011;7750;48.796;9.026;2022-09-21T06:48:42;11.10;;;7.10;;
15297;SDS011;7750;48.796;9.026;2022-09-21T06:53:43;10.47;;;6.10;;
15297;SDS011;7750;48.796;9.026;2022-09-21T06:58:43;9.30;;;7.27;;
15297;SDS011;7750;48.796;9.026;2022-09-21T07:03:49;7.50;;;5.17;;
15297;SDS011;7750;48.796;9.026;2022-09-21T07:08:51;9.50;;;5.37;;
15297;SDS011;7750;48.796;9.026;2022-09-21T07:13:55;10.07;;;5.83;;
15297;SDS011;7750;48.796;9.026;2022-09-21T07:18:58;10.27;;;6.37;;
15297;SDS011;7750;48.796;9.026;2022-09-21T07:23:59;9.00;;;6.23;;
15297;SDS011;7750;48.796;9.026;2022-09-21T07:28:59;10.70;;;5.43;;
15297;SDS011;7750;48.796;9.026;2022-09-21T07:34:00;9.87;;;5.93;;
15297;SDS011;7750;48.796;9.026;2022-09-21T07:39:01;8.10;;;5.33;;
15297;SDS011;7750;48.796;9.026;2022-09-21T07:44:02;10.00;;;5.43;;
15297;SDS011;7750;48.796;9.026;2022-09-21T07:49:03;11.20;;;6.13;;
15297;SDS011;7750;48.796;9.026;2022-09-21T07:54:04;10.83;;;5.77;;
15297;SDS011;7750;48.796;9.026;2022-09-21T07:59:05;9.23;;;4.90;;
15297;SDS011;7750;48.796;9.026;2022-09-21T08:04:07;12.60;;;4.87;;
15297;SDS011;7750;48.796;9.026;2022-09-21T08:09:09;10.50;;;4.40;;
15297;SDS011;7750;48.796;9.026;2022-09-21T08:14:10;7.83;;;4.10;;
15297;SDS011;7750;48.796;9.026;2022-09-21T08:19:18;7.70;;;4.13;;
15297;SDS011;7750;48.796;9.026;2022-09-21T08:24:20;8.13;;;4.20;;
15297;SDS011;7750;48.796;9.026;2022-09-21T08:29:21;7.60;;;4.20;;
15297;SDS011;7750;48.796;9.026;2022-09-21T08:34:22;8.43;;;4.10;;
15297;SDS011;7750;48.796;9.026;2022-09-21T08:39:23;7.63;;;4.10;;
15297;SDS011;7750;48.796;9.026;2022-09-21T08:49:50;10.13;;;3.70;;
15297;SDS011;7750;48.796;9.026;2022-09-21T08:55:00;10.47;;;4.23;;
15297;SDS011;7750;48.796;9.026;2022-09-21T09:00:06;9.83;;;3.47;;
15297;SDS011;7750;48.796;9.026;2022-09-21T09:10:41;6.40;;;2.90;;
15297;SDS011;7750;48.796;9.026;2022-09-21T09:21:07;5.80;;;3.07;;
15297;SDS011;7750;48.796;9.026;2022-09-21T09:26:14;5.63;;;2.90;;
15297;SDS011;7750;48.796;9.026;2022-09-21T09:31:21;5.87;;;3.80;;
15297;SDS011;7750;48.796;9.026;2022-09-21T09:36:31;22.53;;;9.47;;
15297;SDS011;7750;48.796;9.026;2022-09-21T09:52:09;6.70;;;2.20;;
15297;SDS011;7750;48.796;9.026;2022-09-21T09:57:12;7.10;;;2.37;;
15297;SDS011;7750;48.796;9.026;2022-09-21T10:02:18;4.57;;;1.83;;
15297;SDS011;7750;48.796;9.026;2022-09-21T10:07:32;3.90;;;1.80;;
15297;SDS011;7750;48.796;9.026;2022-09-21T10:12:44;5.70;;;1.97;;
15297;SDS011;7750;48.796;9.026;2022-09-21T10:17:46;3.33;;;1.90;;
15297;SDS011;7750;48.796;9.026;2022-09-21T10:22:48;3.43;;;2.13;;
15297;SDS011;7750;48.796;9.026;2022-09-21T10:27:54;3.57;;;1.70;;
15297;SDS011;7750;48.796;9.026;2022-09-21T10:32:56;4.03;;;1.77;;
15297;SDS011;7750;48.796;9.026;2022-09-21T10:38:08;3.33;;;1.60;;
15297;SDS011;7750;48.796;9.026;2022-09-21T10:43:23;2.17;;;1.40;;
15297;SDS011;7750;48.796;9.026;2022-09-21T10:48:30;2.70;;;1.60;;
15297;SDS011;7750;48.796;9.026;2022-09-21T10:53:31;4.20;;;1.43;;
15297;SDS011;7750;48.796;9.026;2022-09-21T10:58:34;4.77;;;1.87;;
15297;SDS011;7750;48.796;9.026;2022-09-21T11:03:37;3.93;;;1.67;;
15297;SDS011;7750;48.796;9.026;2022-09-21T11:19:26;2.90;;;1.77;;
15297;SDS011;7750;48.796;9.026;2022-09-21T11:30:31;4.57;;;2.23;;
15297;SDS011;7750;48.796;9.026;2022-09-21T11:46:42;3.43;;;1.90;;
15297;SDS011;7750;48.796;9.026;2022-09-21T11:57:22;4.00;;;1.83;;
15297;SDS011;7750;48.796;9.026;2022-09-21T12:23:37;2.70;;;1.30;;
15297;SDS011;7750;48.796;9.026;2022-09-21T12:28:49;3.73;;;1.87;;
15297;SDS011;7750;48.796;9.026;2022-09-21T12:34:17;4.10;;;1.50;;
15297;SDS011;7750;48.796;9.026;2022-09-21T12:39:27;2.10;;;1.23;;
15297;SDS011;7750;48.796;9.026;2022-09-21T12:44:44;4.03;;;1.50;;
15297;SDS011;7750;48.796;9.026;2022-09-21T12:49:57;2.50;;;1.30;;
15297;SDS011;7750;48.796;9.026;2022-09-21T12:55:25;2.40;;;1.40;;
15297;SDS011;7750;48.796;9.026;2022-09-21T13:00:39;3.13;;;1.33;;
15297;SDS011;7750;48.796;9.026;2022-09-21T13:11:15;3.00;;;1.20;;
15297;SDS011;7750;48.796;9.026;2022-09-21T13:16:31;6.73;;;1.13;;
15297;SDS011;7750;48.796;9.026;2022-09-21T13:21:34;3.17;;;1.53;;
15297;SDS011;7750;48.796;9.026;2022-09-21T13:26:36;2.10;;;1.10;;
15297;SDS011;7750;48.796;9.026;2022-09-21T13:31:41;2.20;;;1.30;;
15297;SDS011;7750;48.796;9.026;2022-09-21T13:36:42;3.13;;;1.20;;
15297;SDS011;7750;48.796;9.026;2022-09-21T13:41:42;3.10;;;1.40;;
15297;SDS011;7750;48.796;9.026;2022-09-21T13:46:45;2.37;;;1.27;;
15297;SDS011;7750;48.796;9.026;2022-09-21T13:57:15;3.23;;;1.37;;
15297;SDS011;7750;48.796;9.026;2022-09-21T14:02:38;1.93;;;1.07;;
15297;SDS011;7750;48.796;9.026;2022-09-21T14:14:00;2.50;;;1.40;;
15297;SDS011;7750;48.796;9.026;2022-09-21T14:18:44;2.77;;;1.40;;
15297;SDS011;7750;48.796;9.026;2022-09-21T14:24:32;4.00;;;1.50;;
15297;SDS011;7750;48.796;9.026;2022-09-21T14:29:28;3.53;;;1.20;;
15297;SDS011;7750;48.796;9.026;2022-09-21T14:34:44;2.27;;;1.23;;
15297;SDS011;7750;48.796;9.026;2022-09-21T14:39:47;2.20;;;1.20;;
15297;SDS011;7750;48.796;9.026;2022-09-21T14:44:48;3.67;;;1.30;;
15297;SDS011;7750;48.796;9.026;2022-09-21T15:00:43;2.77;;;1.20;;
15297;SDS011;7750;48.796;9.026;2022-09-21T15:05:54;3.10;;;1.60;;
15297;SDS011;7750;48.796;9.026;2022-09-21T15:11:30;4.57;;;1.53;;
15297;SDS011;7750;48.796;9.026;2022-09-21T15:16:41;3.07;;;1.70;;
15297;SDS011;7750;48.796;9.026;2022-09-21T15:21:50;2.97;;;1.30;;
15297;SDS011;7750;48.796;9.026;2022-09-21T15:26:53;2.93;;;1.60;;
15297;SDS011;7750;48.796;9.026;2022-09-21T15:32:01;3.40;;;1.50;;
15297;SDS011;7750;48.796;9.026;2022-09-21T15:37:15;2.90;;;1.40;;
15297;SDS011;7750;48.796;9.026;2022-09-21T15:42:19;2.20;;;1.20;;
15297;SDS011;7750;48.796;9.026;2022-09-21T15:47:22;2.33;;;1.37;;
15297;SDS011;7750;48.796;9.026;2022-09-21T15:52:27;2.57;;;1.23;;
15297;SDS011;7750;48.796;9.026;2022-09-21T15:57:36;2.50;;;1.23;;
15297;SDS011;7750;48.796;9.026;2022-09-21T16:02:39;2.47;;;1.23;;
15297;SDS011;7750;48.796;9.026;2022-09-21T16:07:42;2.00;;;1.10;;
15297;SDS011;7750;48.796;9.026;2022-09-21T16:12:46;2.30;;;1.20;;
15297;SDS011;7750;48.796;9.026;2022-09-21T16:17:55;2.30;;;1.20;;
15297;SDS011;7750;48.796;9.026;2022-09-21T16:23:04;3.47;;;1.23;;
15297;SDS011;7750;48.796;9.026;2022-09-21T16:44:20;3.93;;;1.77;;
15297;SDS011;7750;48.796;9.026;2022-09-21T16:49:25;2.70;;;1.63;;
15297;SDS011;7750;48.796;9.026;2022-09-21T16:54:32;2.43;;;1.37;;
15297;SDS011;7750;48.796;9.026;2022-09-21T16:59:39;2.70;;;1.37;;
15297;SDS011;7750;48.796;9.026;2022-09-21T17:34:40;2.20;;;1.40;;
15297;SDS011;7750;48.796;9.026;2022-09-21T17:51:16;5.70;;;1.93;;
15297;SDS011;7750;48.796;9.026;2022-09-21T17:56:39;3.17;;;1.60;;
15297;SDS011;7750;48.796;9.026;2022-09-21T18:01:44;2.90;;;1.60;;
15297;SDS011;7750;48.796;9.026;2022-09-21T18:06:44;3.07;;;1.73;;
15297;SDS011;7750;48.796;9.026;2022-09-21T18:27:44;3.00;;;1.90;;
15297;SDS011;7750;48.796;9.026;2022-09-21T18:38:11;4.30;;;1.57;;
15297;SDS011;7750;48.796;9.026;2022-09-21T18:43:39;2.90;;;1.50;;
15297;SDS011;7750;48.796;9.026;2022-09-21T18:54:00;3.50;;;1.57;;
15297;SDS011;7750;48.796;9.026;2022-09-21T18:59:01;3.30;;;1.70;;
15297;SDS011;7750;48.796;9.026;2022-09-21T19:04:03;3.00;;;1.33;;
15297;SDS011;7750;48.796;9.026;2022-09-21T19:20:06;4.63;;;2.00;;
15297;SDS011;7750;48.796;9.026;2022-09-21T19:25:39;3.57;;;2.10;;
15297;SDS011;7750;48.796;9.026;2022-09-21T19:30:42;11.10;;;2.10;;
15297;SDS011;7750;48.796;9.026;2022-09-21T19:35:46;2.50;;;1.80;;
15297;SDS011;7750;48.796;9.026;2022-09-21T19:40:48;3.40;;;2.40;;
15297;SDS011;7750;48.796;9.026;2022-09-21T19:51:07;3.10;;;2.00;;
15297;SDS011;7750;48.796;9.026;2022-09-21T19:56:43;4.33;;;2.80;;
15297;SDS011;7750;48.796;9.026;2022-09-21T20:02:07;6.17;;;3.30;;
15297;SDS011;7750;48.796;9.026;2022-09-21T20:12:49;4.53;;;3.00;;
15297;SDS011;7750;48.796;9.026;2022-09-21T20:18:18;5.03;;;2.50;;
15297;SDS011;7750;48.796;9.026;2022-09-21T20:23:39;4.70;;;2.60;;
15297;SDS011;7750;48.796;9.026;2022-09-21T20:28:40;3.90;;;2.30;;
15297;SDS011;7750;48.796;9.026;2022-09-21T20:33:42;3.80;;;2.00;;
15297;SDS011;7750;48.796;9.026;2022-09-21T20:38:42;3.10;;;1.90;;
15297;SDS011;7750;48.796;9.026;2022-09-21T20:43:43;4.60;;;2.10;;
15297;SDS011;7750;48.796;9.026;2022-09-21T20:48:44;3.70;;;2.20;;
15297;SDS011;7750;48.796;9.026;2022-09-21T20:53:44;4.70;;;2.27;;
15297;SDS011;7750;48.796;9.026;2022-09-21T20:58:45;4.60;;;2.27;;
15297;SDS011;7750;48.796;9.026;2022-09-21T21:03:45;3.73;;;2.33;;
15297;SDS011;7750;48.796;9.026;2022-09-21T21:08:46;8.43;;;2.33;;
15297;SDS011;7750;48.796;9.026;2022-09-21T21:13:47;3.80;;;2.13;;
15297;SDS011;7750;48.796;9.026;2022-09-21T21:18:47;3.23;;;2.23;;
15297;SDS011;7750;48.796;9.026;2022-09-21T21:23:48;5.13;;;1.93;;
15297;SDS011;7750;48.796;9.026;2022-09-21T21:29:08;4.30;;;2.10;;
15297;SDS011;7750;48.796;9.026;2022-09-21T21:34:09;3.67;;;2.17;;
15297;SDS011;7750;48.796;9.026;2022-09-21T21:39:09;3.33;;;2.27;;
15297;SDS011;7750;48.796;9.026;2022-09-21T21:44:10;3.57;;;2.20;;
15297;SDS011;7750;48.796;9.026;2022-09-21T21:49:11;2.60;;;2.07;;
15297;SDS011;7750;48.796;9.026;2022-09-21T21:54:12;3.13;;;2.27;;
15297;SDS011;7750;48.796;9.026;2022-09-21T21:59:13;3.20;;;2.30;;
15297;SDS011;7750;48.796;9.026;2022-09-21T22:04:15;5.03;;;2.53;;
15297;SDS011;7750;48.796;9.026;2022-09-21T22:09:16;3.97;;;2.30;;
15297;SDS011;7750;48.796;9.026;2022-09-21T22:14:17;4.40;;;2.60;;
15297;SDS011;7750;48.796;9.026;2022-09-21T22:19:18;3.53;;;2.43;;
15297;SDS011;7750;48.796;9.026;2022-09-21T22:24:19;3.67;;;2.03;;
15297;SDS011;7750;48.796;9.026;2022-09-21T22:29:20;3.47;;;2.60;;
15297;SDS011;7750;48.796;9.026;2022-09-21T22:34:20;5.10;;;2.37;;
15297;SDS011;7750;48.796;9.026;2022-09-21T22:39:21;4.33;;;2.33;;
15297;SDS011;7750;48.796;9.026;2022-09-21T22:44:21;3.70;;;2.43;;
15297;SDS011;7750;48.796;9.026;2022-09-21T22:49:22;4.30;;;2.60;;
15297;SDS011;7750;48.796;9.026;2022-09-21T22:54:23;4.27;;;2.43;;
15297;SDS011;7750;48.796;9.026;2022-09-21T22:59:23;5.10;;;2.93;;
15297;SDS011;7750;48.796;9.026;2022-09-21T23:04:24;5.03;;;2.80;;
15297;SDS011;7750;48.796;9.026;2022-09-21T23:09:25;5.70;;;2.63;;
15297;SDS011;7750;48.796;9.026;2022-09-21T23:14:25;4.60;;;2.60;;
15297;SDS011;7750;48.796;9.026;2022-09-21T23:19:26;10.97;;;3.30;;
15297;SDS011;7750;48.796;9.026;2022-09-21T23:24:27;4.10;;;2.77;;
15297;SDS011;7750;48.796;9.026;2022-09-21T23:29:27;4.17;;;2.80;;
15297;SDS011;7750;48.796;9.026;2022-09-21T23:34:28;3.33;;;2.10;;
15297;SDS011;7750;48.796;9.026;2022-09-21T23:39:28;5.60;;;2.83;;
15297;SDS011;7750;48.796;9.026;2022-09-21T23:44:29;3.90;;;2.80;;
15297;SDS011;7750;48.796;9.026;2022-09-21T23:49:30;3.80;;;2.67;;
15297;SDS011;7750;48.796;9.026;2022-09-21T23:54:30;4.33;;;2.57;;
15297;SDS011;7750;48.796;9.026;2022-09-21T23:59:31;7.33;;;2.50;;
